Список аэропортов
Фактическая погода:

21 апреля, 19:00
Температура: +16°C (+14.5*)
Ветер: юго-восточный 8 м/с
Давление: *766 мм
Без существ. явл.
Время (МСК)Темп. СВетерВлажностьДавлениеОблачностьОсадки
15:00+16В, 6 м/с44%1019 гПамалооблачно
16:00+16В, 7 м/с41%1019 гПас прояснениямисл. дождь
17:00+16В, 7 м/с38%1020 гПас прояснениями
18:00+16В, 7 м/с36%1020 гПаясно
19:00+15В, 6 м/с34%1020 гПаясно
20:00+14В, 4 м/с37%1021 гПамалооблачно
21:00+12В, 4 м/с39%1022 гПамалооблачно
22:00+11В, 4 м/с40%1023 гПаясно
23:00+10В, 4 м/с41%1023 гПаясно
22 апреля
00:00+10В, 4 м/с43%1024 гПаясно
01:00+8В, 3 м/с48%1025 гПаясно
02:00+7СВ, 3 м/с54%1025 гПамалооблачно
03:00+6СВ, 3 м/с59%1026 гПас прояснениями
04:00+5СВ, 3 м/с64%1026 гПаясно
05:00+4СВ, 2 м/с70%1027 гПаясно
06:00+3СВ, 2 м/с78%1027 гПаясно
07:00+3СВ, 2 м/с78%1028 гПаясно
08:00+6СВ, 2 м/с64%1028 гПаясно
09:00+9СВ, 2 м/с52%1028 гПаясно
10:00+12СВ, 2 м/с43%1028 гПаясно
11:00+15В, 3 м/с35%1029 гПаясно
12:00+16В, 5 м/с28%1029 гПаясно
13:00+17В, 5 м/с26%1029 гПаясно
14:00+17В, 4 м/с25%1029 гПаясно
15:00+18В, 4 м/с24%1028 гПаясно
16:00+18В, 4 м/с23%1028 гПаясно
17:00+17В, 4 м/с23%1028 гПаясно
18:00+17В, 4 м/с23%1028 гПаясно
19:00+16В, 3 м/с25%1028 гПаясно
20:00+13В, 1 м/с38%1029 гПаясно
21:00+11СВ, 1 м/с48%1029 гПаясно
22:00+9СВ, 1 м/с51%1030 гПаясно
23:00+8С, 1 м/с55%1030 гПаясно
23 апреля
00:00+7С, 2 м/с58%1030 гПаясно
01:00+6С, 1 м/с65%1030 гПаясно
02:00+5С, 2 м/с67%1031 гПаясно
03:00+4С, 2 м/с71%1031 гПамалооблачно
04:00+3СЗ, 2 м/с77%1031 гПамалооблачно
05:00+2СЗ, 2 м/с83%1031 гПамалооблачно
06:00+2С, 2 м/с86%1032 гПамалооблачно
07:00+2С, 1 м/с84%1032 гПаясно
08:00+5С, 1 м/с71%1032 гПаясно
09:00+10СВ, 1 м/с54%1032 гПас прояснениями
10:00+14В, 2 м/с40%1032 гПамалооблачно
11:00+17В, 3 м/с31%1032 гПас прояснениями
12:00+18В, 3 м/с27%1031 гПамалооблачно
13:00+18В, 2 м/с26%1031 гПамалооблачно
14:00+19В, 2 м/с25%1031 гПас прояснениями
15:00+19В, 2 м/с25%1030 гПас прояснениями